createdAt,value
2022-08-22T00:00:17.951Z,35.58
2022-08-22T00:02:21.630Z,35.60
2022-08-22T00:02:55.559Z,35.87
2022-08-22T00:02:57.845Z,35.77
2022-08-22T00:03:02.739Z,33.06
2022-08-22T00:03:08.632Z,36.01
2022-08-22T00:03:11.930Z,36.29
2022-08-22T00:03:50.577Z,35.36
2022-08-22T00:05:27.449Z,35.32
2022-08-22T00:06:53.536Z,35.24
2022-08-22T00:08:38.044Z,35.49
2022-08-22T00:10:25.286Z,35.37
2022-08-22T00:11:51.339Z,35.43
2022-08-22T00:13:06.008Z,35.21
2022-08-22T00:14:42.326Z,35.29
2022-08-22T00:16:13.809Z,35.24
2022-08-22T00:17:51.144Z,35.39
2022-08-22T00:19:25.364Z,35.18
2022-08-22T00:20:39.309Z,34.99
2022-08-22T00:22:07.227Z,35.11
2022-08-22T00:23:36.817Z,35.23
2022-08-22T00:25:25.728Z,35.20
2022-08-22T00:26:45.445Z,35.23
2022-08-22T00:28:01.515Z,35.21
2022-08-22T00:29:18.602Z,35.35
2022-08-22T00:30:27.030Z,35.11
2022-08-22T00:31:52.187Z,34.92
2022-08-22T00:33:11.918Z,35.01
2022-08-22T00:34:39.351Z,34.88
2022-08-22T00:36:00.008Z,34.98
2022-08-22T00:37:18.498Z,34.98
2022-08-22T00:38:35.755Z,34.91
2022-08-22T00:39:49.625Z,34.81
2022-08-22T00:41:04.102Z,34.55
2022-08-22T00:43:05.481Z,34.56
2022-08-22T00:44:40.754Z,34.57
2022-08-22T00:46:14.155Z,34.30
2022-08-22T00:47:38.043Z,34.33
2022-08-22T00:49:14.822Z,34.21
2022-08-22T00:51:00.761Z,34.14
2022-08-22T00:52:31.944Z,34.16
2022-08-22T00:53:56.254Z,34.35
2022-08-22T00:55:34.870Z,34.61
2022-08-22T00:57:06.582Z,34.38
2022-08-22T00:58:30.336Z,34.06
2022-08-22T00:59:41.861Z,33.99
2022-08-22T01:00:58.022Z,34.04
2022-08-22T01:02:08.998Z,33.98
2022-08-22T01:03:48.770Z,33.99
2022-08-22T01:05:05.264Z,34.14
2022-08-22T01:06:24.571Z,34.22
2022-08-22T01:08:03.284Z,34.05
2022-08-22T01:09:33.727Z,33.95
2022-08-22T01:11:25.496Z,33.72
2022-08-22T01:12:45.257Z,33.66
2022-08-22T01:14:14.691Z,33.60
2022-08-22T01:15:26.747Z,33.57
2022-08-22T01:17:02.261Z,33.48
2022-08-22T01:18:39.487Z,33.52
2022-08-22T01:20:12.135Z,33.66
2022-08-22T01:21:33.501Z,33.68
2022-08-22T01:22:59.019Z,33.75
2022-08-22T01:25:04.574Z,33.51
2022-08-22T01:26:16.181Z,33.31
2022-08-22T01:27:52.594Z,33.17
2022-08-22T01:29:10.434Z,32.99
2022-08-22T01:30:45.294Z,32.91
2022-08-22T01:32:32.619Z,32.64
2022-08-22T01:34:02.246Z,32.55
2022-08-22T01:35:38.305Z,32.47
2022-08-22T01:37:20.347Z,32.31
2022-08-22T01:38:53.375Z,32.16
2022-08-22T01:40:29.005Z,32.11
2022-08-22T01:42:16.833Z,32.15
2022-08-22T01:44:00.748Z,32.27
2022-08-22T01:45:24.908Z,32.20
2022-08-22T01:46:52.005Z,32.19
2022-08-22T01:48:33.747Z,32.06
2022-08-22T01:49:56.744Z,31.90
2022-08-22T01:51:27.298Z,31.75
2022-08-22T01:52:47.214Z,31.48
2022-08-22T01:54:36.432Z,31.37
2022-08-22T01:56:18.772Z,31.11
2022-08-22T01:57:29.654Z,30.81
2022-08-22T01:58:39.733Z,30.63
2022-08-22T01:59:52.663Z,30.37
2022-08-22T02:01:26.418Z,30.18
2022-08-22T02:02:48.605Z,29.99
2022-08-22T02:04:02.470Z,29.89
2022-08-22T02:05:40.523Z,29.84
2022-08-22T02:07:38.185Z,29.73
2022-08-22T02:09:18.092Z,29.60
2022-08-22T02:10:49.869Z,29.46
2022-08-22T02:12:39.568Z,29.32
2022-08-22T02:13:57.130Z,29.14
2022-08-22T02:15:29.350Z,28.96
2022-08-22T02:16:49.928Z,28.66
2022-08-22T02:19:06.744Z,28.45
2022-08-22T02:20:34.362Z,28.10
2022-08-22T02:22:19.294Z,27.89
2022-08-22T02:23:55.969Z,27.71
2022-08-22T02:25:11.773Z,27.55
2022-08-22T02:26:52.001Z,27.38
2022-08-22T02:28:16.322Z,27.25
2022-08-22T02:29:47.646Z,27.12
2022-08-22T02:31:08.182Z,26.99
2022-08-22T02:33:01.125Z,26.85
2022-08-22T02:34:46.067Z,26.69
2022-08-22T02:36:21.065Z,26.56
2022-08-22T02:37:44.217Z,26.45
2022-08-22T02:39:05.220Z,26.36
2022-08-22T02:40:43.823Z,26.30
2022-08-22T02:42:04.716Z,26.20
2022-08-22T02:43:20.309Z,26.13
2022-08-22T02:44:37.216Z,26.06
2022-08-22T02:46:17.182Z,26.00
2022-08-22T02:47:30.935Z,25.93
2022-08-22T02:48:42.141Z,25.86
2022-08-22T02:50:12.848Z,25.81
2022-08-22T02:51:59.814Z,25.74
2022-08-22T02:53:13.516Z,25.66
2022-08-22T02:54:31.524Z,25.63
2022-08-22T02:56:11.656Z,25.58
2022-08-22T02:57:39.708Z,25.50
2022-08-22T02:59:29.556Z,25.45
2022-08-22T03:01:18.881Z,25.38
2022-08-22T03:02:37.986Z,25.30
2022-08-22T03:03:50.193Z,25.27
2022-08-22T03:05:05.163Z,25.23
2022-08-22T03:07:00.722Z,25.19
2022-08-22T03:08:21.087Z,25.14
2022-08-22T03:10:03.228Z,25.08
2022-08-22T03:11:23.811Z,25.02
2022-08-22T03:12:43.096Z,24.98
2022-08-22T03:14:23.290Z,24.94
2022-08-22T03:15:32.317Z,24.89
2022-08-22T03:17:02.106Z,24.86
2022-08-22T03:18:51.132Z,24.82
2022-08-22T03:20:52.459Z,24.76
2022-08-22T03:22:05.463Z,24.71
2022-08-22T03:24:09.580Z,24.67
2022-08-22T03:25:29.411Z,24.62
2022-08-22T03:27:01.332Z,24.58
2022-08-22T03:28:18.103Z,24.54
2022-08-22T03:29:38.738Z,24.52
2022-08-22T03:31:13.359Z,24.49
2022-08-22T03:32:23.069Z,24.46
2022-08-22T03:33:33.533Z,24.43
2022-08-22T03:34:56.650Z,24.41
2022-08-22T03:36:28.941Z,24.39
2022-08-22T03:37:45.172Z,24.36
2022-08-22T03:39:21.225Z,24.31
2022-08-22T03:40:44.760Z,24.28
2022-08-22T03:42:11.793Z,24.25
2022-08-22T03:43:57.611Z,24.20
2022-08-22T03:45:24.953Z,24.15
2022-08-22T03:47:10.651Z,24.08
2022-08-22T03:48:40.575Z,24.04
2022-08-22T03:50:07.048Z,24.00
2022-08-22T03:51:33.782Z,23.95
2022-08-22T03:53:18.869Z,23.92
2022-08-22T03:54:59.733Z,23.88
2022-08-22T03:56:45.442Z,23.87
2022-08-22T03:58:31.924Z,23.84
2022-08-22T04:00:15.314Z,23.80
2022-08-22T04:02:00.875Z,23.76
2022-08-22T04:03:27.973Z,23.71
2022-08-22T04:05:14.142Z,23.67
2022-08-22T04:07:00.379Z,23.64
2022-08-22T04:08:48.051Z,23.61
2022-08-22T04:10:33.550Z,23.58
2022-08-22T04:12:03.138Z,23.54
2022-08-22T04:13:24.645Z,23.52
2022-08-22T04:14:46.927Z,23.50
2022-08-22T04:16:27.904Z,23.47
2022-08-22T04:17:46.696Z,23.42
2022-08-22T04:19:13.763Z,23.40
2022-08-22T04:20:42.740Z,23.36
2022-08-22T04:22:41.961Z,23.33
2022-08-22T04:24:03.312Z,23.28
2022-08-22T04:25:18.362Z,23.26
2022-08-22T04:26:38.008Z,23.24
2022-08-22T04:27:57.719Z,23.21
2022-08-22T04:29:11.100Z,23.20
2022-08-22T04:30:28.939Z,23.17
2022-08-22T04:31:48.225Z,23.15
2022-08-22T04:33:21.374Z,23.13
2022-08-22T04:34:42.793Z,23.11
2022-08-22T04:36:30.312Z,23.09
2022-08-22T04:38:01.436Z,23.06
2022-08-22T04:39:37.317Z,23.03
2022-08-22T04:41:01.409Z,23.01
2022-08-22T04:42:49.357Z,22.98
2022-08-22T04:44:17.188Z,22.95
2022-08-22T04:45:37.668Z,22.92
2022-08-22T04:46:58.463Z,22.90
2022-08-22T04:48:24.138Z,22.88
2022-08-22T04:49:43.060Z,22.85
2022-08-22T04:50:52.812Z,22.83
2022-08-22T04:52:29.418Z,22.80
2022-08-22T04:53:41.265Z,22.76
2022-08-22T04:55:19.944Z,22.75
2022-08-22T04:56:50.604Z,22.73
2022-08-22T04:58:33.210Z,22.70
2022-08-22T04:59:42.163Z,22.65
2022-08-22T05:01:11.755Z,22.64
2022-08-22T05:02:29.381Z,22.63
2022-08-22T05:03:46.048Z,22.60
2022-08-22T05:05:34.318Z,22.58
2022-08-22T05:06:47.992Z,22.56
2022-08-22T05:08:01.177Z,22.54
2022-08-22T05:09:17.110Z,22.55
2022-08-22T05:10:34.434Z,22.52
2022-08-22T05:11:42.007Z,22.51
2022-08-22T05:13:20.182Z,22.50
2022-08-22T05:14:32.057Z,22.45
2022-08-22T05:15:42.411Z,22.41
2022-08-22T05:16:52.295Z,22.39
2022-08-22T05:18:04.346Z,22.39
2022-08-22T05:19:16.939Z,22.36
2022-08-22T05:20:29.744Z,22.35
2022-08-22T05:21:39.375Z,22.33
2022-08-22T05:22:48.824Z,22.31
2022-08-22T05:24:09.839Z,22.30
2022-08-22T05:25:27.598Z,22.28
2022-08-22T05:26:44.854Z,22.27
2022-08-22T05:27:56.467Z,22.24
2022-08-22T05:29:09.315Z,22.21
2022-08-22T05:30:22.504Z,22.19
2022-08-22T05:31:32.635Z,22.17
2022-08-22T05:33:10.499Z,22.14
2022-08-22T05:34:21.834Z,22.10
2022-08-22T05:35:47.190Z,22.08
2022-08-22T05:37:03.543Z,22.07
2022-08-22T05:38:19.312Z,22.04
2022-08-22T05:39:28.306Z,22.02
2022-08-22T05:40:37.702Z,22.02
2022-08-22T05:41:46.115Z,22.00
2022-08-22T05:42:55.120Z,21.99
2022-08-22T05:44:06.023Z,21.98
2022-08-22T05:45:13.479Z,21.96
2022-08-22T05:46:38.595Z,21.95
2022-08-22T05:47:49.103Z,21.93
2022-08-22T05:49:01.504Z,21.90
2022-08-22T05:50:21.368Z,21.87
2022-08-22T05:51:53.751Z,21.84
2022-08-22T05:53:36.928Z,21.81
2022-08-22T05:55:00.502Z,21.78
2022-08-22T05:56:20.788Z,21.76
2022-08-22T05:57:33.969Z,21.73
2022-08-22T05:58:57.146Z,21.71
2022-08-22T06:00:24.170Z,21.69
2022-08-22T06:02:02.628Z,21.65
2022-08-22T06:03:17.581Z,21.61
2022-08-22T06:05:00.570Z,21.59
2022-08-22T06:06:17.437Z,21.56
2022-08-22T06:07:44.418Z,21.54
2022-08-22T06:09:36.659Z,21.51
2022-08-22T06:10:56.964Z,21.48
2022-08-22T06:12:26.266Z,21.47
2022-08-22T06:13:44.710Z,21.45
2022-08-22T06:15:21.084Z,21.43
2022-08-22T06:16:39.586Z,21.41
2022-08-22T06:18:08.548Z,21.40
2022-08-22T06:19:19.350Z,21.38
2022-08-22T06:20:35.021Z,21.39
2022-08-22T06:21:44.470Z,21.37
2022-08-22T06:22:55.120Z,21.34
2022-08-22T06:24:06.378Z,21.30
2022-08-22T06:25:19.047Z,21.28
2022-08-22T06:26:32.310Z,21.27
2022-08-22T06:27:41.346Z,21.25
2022-08-22T06:28:55.437Z,21.23
2022-08-22T06:30:05.239Z,21.22
2022-08-22T06:31:24.936Z,21.21
2022-08-22T06:32:58.764Z,21.20
2022-08-22T06:34:24.408Z,21.18
2022-08-22T06:36:01.439Z,21.17
2022-08-22T06:37:12.131Z,21.14
2022-08-22T06:38:20.723Z,21.13
2022-08-22T06:39:36.267Z,21.11
2022-08-22T06:40:44.821Z,21.10
2022-08-22T06:42:14.519Z,21.09
2022-08-22T06:43:37.769Z,21.06
2022-08-22T06:44:52.480Z,21.05
2022-08-22T06:46:00.917Z,21.03
2022-08-22T06:47:09.758Z,21.02
2022-08-22T06:48:21.297Z,21.01
2022-08-22T06:49:31.151Z,20.99
2022-08-22T06:50:43.106Z,20.97
2022-08-22T06:51:51.488Z,20.96
2022-08-22T06:53:10.118Z,20.94
2022-08-22T06:54:22.858Z,20.93
2022-08-22T06:55:31.094Z,20.92
2022-08-22T06:56:43.993Z,20.91
2022-08-22T06:58:04.957Z,20.90
2022-08-22T06:59:18.124Z,20.88
2022-08-22T07:00:26.153Z,20.86
2022-08-22T07:01:37.540Z,20.85
2022-08-22T07:02:48.045Z,20.85
2022-08-22T07:04:00.577Z,20.85
2022-08-22T07:05:11.092Z,20.86
2022-08-22T07:06:30.289Z,20.85
2022-08-22T07:07:40.333Z,20.82
2022-08-22T07:08:47.849Z,20.81
2022-08-22T07:09:57.687Z,20.79
2022-08-22T07:11:41.025Z,20.78
2022-08-22T07:12:51.025Z,20.76
2022-08-22T07:14:12.471Z,20.77
2022-08-22T07:15:39.141Z,20.76
2022-08-22T07:17:04.844Z,20.75
2022-08-22T07:18:27.379Z,20.74
2022-08-22T07:19:42.766Z,20.73
2022-08-22T07:20:58.337Z,20.72
2022-08-22T07:22:23.021Z,20.71
2022-08-22T07:23:37.452Z,20.68
2022-08-22T07:24:48.633Z,20.67
2022-08-22T07:26:16.850Z,20.66
2022-08-22T07:27:49.487Z,20.64
2022-08-22T07:29:41.564Z,20.61
2022-08-22T07:30:53.053Z,20.59
2022-08-22T07:32:23.276Z,20.59
2022-08-22T07:33:53.327Z,20.56
2022-08-22T07:35:32.628Z,20.54
2022-08-22T07:36:47.873Z,20.51
2022-08-22T07:38:01.079Z,20.50
2022-08-22T07:39:44.894Z,20.49
2022-08-22T07:40:59.039Z,20.47
2022-08-22T07:42:20.385Z,20.46
2022-08-22T07:43:55.774Z,20.45
2022-08-22T07:45:15.503Z,20.45
2022-08-22T07:46:50.117Z,20.44
2022-08-22T07:48:25.023Z,20.43
2022-08-22T07:49:58.686Z,20.42
2022-08-22T07:51:08.935Z,20.41
2022-08-22T07:52:16.670Z,20.39
2022-08-22T07:53:44.348Z,20.37
2022-08-22T07:55:05.072Z,20.36
2022-08-22T07:56:27.916Z,20.36
2022-08-22T07:57:41.313Z,20.34
2022-08-22T07:58:50.208Z,20.33
2022-08-22T08:00:00.338Z,20.33
2022-08-22T08:01:12.029Z,20.32
2022-08-22T08:02:20.542Z,20.29
2022-08-22T08:03:29.761Z,20.28
2022-08-22T08:04:40.382Z,20.27
2022-08-22T08:05:48.860Z,20.27
2022-08-22T08:06:58.084Z,20.27
2022-08-22T08:08:33.183Z,20.24
2022-08-22T08:09:45.852Z,20.22
2022-08-22T08:10:53.093Z,20.20
2022-08-22T08:12:00.595Z,20.19
2022-08-22T08:13:11.494Z,20.18
2022-08-22T08:14:18.853Z,20.16
2022-08-22T08:15:26.357Z,20.15
2022-08-22T08:16:50.091Z,20.14
2022-08-22T08:18:03.080Z,20.13
2022-08-22T08:19:12.118Z,20.12
2022-08-22T08:20:22.739Z,20.12
2022-08-22T08:21:40.031Z,20.11
2022-08-22T08:22:49.332Z,20.09
2022-08-22T08:23:57.877Z,20.08
2022-08-22T08:25:05.104Z,20.07
2022-08-22T08:26:22.268Z,20.06
2022-08-22T08:27:51.258Z,20.05
2022-08-22T08:28:59.928Z,20.02
2022-08-22T08:30:51.288Z,19.99
2022-08-22T08:31:58.521Z,19.97
2022-08-22T08:33:25.334Z,19.95
2022-08-22T08:34:35.449Z,19.94
2022-08-22T08:36:03.031Z,19.93
2022-08-22T08:37:19.644Z,19.92
2022-08-22T08:38:29.340Z,19.92
2022-08-22T08:39:41.447Z,19.91
2022-08-22T08:41:25.684Z,19.90
2022-08-22T08:43:18.829Z,19.87
2022-08-22T08:45:02.745Z,19.84
2022-08-22T08:46:26.844Z,19.82
2022-08-22T08:47:47.998Z,19.80
2022-08-22T08:49:01.971Z,19.79
2022-08-22T08:50:36.202Z,19.77
2022-08-22T08:51:59.328Z,19.74
2022-08-22T08:53:25.620Z,19.71
2022-08-22T08:54:53.208Z,19.69
2022-08-22T08:56:25.586Z,19.67
2022-08-22T08:57:51.794Z,19.66
2022-08-22T08:59:23.984Z,19.65
2022-08-22T09:01:12.960Z,19.65
2022-08-22T09:02:42.475Z,19.64
2022-08-22T09:04:19.327Z,19.63
2022-08-22T09:05:56.417Z,19.63
2022-08-22T09:07:26.839Z,19.62
2022-08-22T09:08:50.679Z,19.62
2022-08-22T09:10:27.342Z,19.61
2022-08-22T09:12:13.702Z,19.61
2022-08-22T09:13:40.981Z,19.58
2022-08-22T09:15:14.124Z,19.57
2022-08-22T09:16:49.060Z,19.56
2022-08-22T09:18:20.312Z,19.56
2022-08-22T09:19:30.785Z,19.55
2022-08-22T09:21:00.403Z,19.55
2022-08-22T09:22:22.983Z,19.54
2022-08-22T09:23:40.624Z,19.53
2022-08-22T09:25:18.463Z,19.52
2022-08-22T09:26:57.207Z,19.50
2022-08-22T09:28:23.326Z,19.49
2022-08-22T09:29:51.450Z,19.48
2022-08-22T09:31:17.024Z,19.47
2022-08-22T09:32:59.746Z,19.44
2022-08-22T09:34:26.843Z,19.43
2022-08-22T09:35:53.704Z,19.42
2022-08-22T09:37:05.950Z,19.42
2022-08-22T09:38:40.907Z,19.41
2022-08-22T09:39:57.387Z,19.39
2022-08-22T09:41:25.517Z,19.39
2022-08-22T09:43:01.300Z,19.38
2022-08-22T09:44:33.517Z,19.37
2022-08-22T09:46:01.878Z,19.34
2022-08-22T09:47:31.333Z,19.32
2022-08-22T09:48:52.553Z,19.30
2022-08-22T09:50:06.426Z,19.28
2022-08-22T09:51:32.437Z,19.28
2022-08-22T09:53:13.004Z,19.27
2022-08-22T09:54:32.706Z,19.25
2022-08-22T09:56:15.010Z,19.24
2022-08-22T09:57:41.299Z,19.22
2022-08-22T09:59:13.540Z,19.20
2022-08-22T10:00:24.720Z,19.20
2022-08-22T10:01:56.124Z,19.20
2022-08-22T10:03:38.931Z,19.20
2022-08-22T10:04:58.301Z,19.22
2022-08-22T10:06:09.671Z,19.21
2022-08-22T10:07:40.492Z,19.23
2022-08-22T10:09:35.907Z,19.23
2022-08-22T10:11:21.421Z,19.23
2022-08-22T10:12:53.178Z,19.25
2022-08-22T10:14:22.312Z,19.25
2022-08-22T10:15:43.998Z,19.24
2022-08-22T10:17:03.052Z,19.24
2022-08-22T10:18:35.266Z,19.23
2022-08-22T10:19:48.864Z,19.20
2022-08-22T10:21:10.955Z,19.17
2022-08-22T10:22:30.379Z,19.15
2022-08-22T10:23:55.124Z,19.14
2022-08-22T10:25:02.604Z,19.12
2022-08-22T10:26:46.200Z,19.12
2022-08-22T10:28:53.010Z,19.11
2022-08-22T10:30:09.469Z,19.08
2022-08-22T10:31:26.113Z,19.06
2022-08-22T10:32:42.922Z,19.05
2022-08-22T10:34:10.460Z,19.04
2022-08-22T10:35:25.573Z,19.02
2022-08-22T10:37:10.268Z,19.01
2022-08-22T10:38:55.673Z,18.99
2022-08-22T10:40:20.908Z,18.94
2022-08-22T10:41:32.761Z,18.91
2022-08-22T10:42:55.872Z,18.91
2022-08-22T10:44:21.101Z,18.91
2022-08-22T10:45:40.062Z,18.91
2022-08-22T10:47:08.360Z,18.92
2022-08-22T10:48:34.137Z,18.93
2022-08-22T10:50:33.765Z,18.93
2022-08-22T10:51:49.157Z,18.94
2022-08-22T10:53:24.668Z,18.94
2022-08-22T10:54:40.267Z,18.97
2022-08-22T10:55:47.857Z,18.97
2022-08-22T10:57:20.679Z,18.98
2022-08-22T10:58:31.707Z,19.00
2022-08-22T11:00:17.698Z,19.01
2022-08-22T11:01:37.515Z,19.01
2022-08-22T11:03:35.667Z,19.00
2022-08-22T11:05:18.726Z,19.00
2022-08-22T11:06:38.799Z,18.99
2022-08-22T11:08:16.557Z,18.99
2022-08-22T11:09:41.661Z,18.99
2022-08-22T11:11:12.020Z,18.99
2022-08-22T11:12:42.124Z,18.99
2022-08-22T11:14:32.779Z,18.99
2022-08-22T11:16:16.325Z,18.98
2022-08-22T11:17:59.998Z,18.98
2022-08-22T11:19:27.175Z,18.96
2022-08-22T11:20:50.338Z,18.94
2022-08-22T11:22:36.287Z,18.92
2022-08-22T11:24:08.964Z,18.91
2022-08-22T11:26:15.075Z,18.90
2022-08-22T11:28:19.691Z,18.90
2022-08-22T11:29:53.205Z,18.90
2022-08-22T11:31:31.643Z,18.90
2022-08-22T11:33:09.722Z,18.92
2022-08-22T11:34:26.207Z,18.92
2022-08-22T11:36:09.991Z,18.93
2022-08-22T11:37:43.343Z,18.94
2022-08-22T11:39:25.028Z,18.93
2022-08-22T11:40:49.596Z,18.93
2022-08-22T11:42:04.727Z,18.93
2022-08-22T11:43:32.588Z,18.93
2022-08-22T11:44:56.765Z,18.92
2022-08-22T11:46:35.846Z,18.91
2022-08-22T11:47:55.069Z,18.91
2022-08-22T11:49:25.628Z,18.91
2022-08-22T11:51:24.852Z,18.89
2022-08-22T11:52:54.451Z,18.88
2022-08-22T11:54:31.080Z,18.88
2022-08-22T11:56:10.401Z,18.89
2022-08-22T11:57:37.820Z,18.89
2022-08-22T11:59:17.606Z,18.90
2022-08-22T12:01:03.801Z,18.90
2022-08-22T12:03:03.214Z,18.90
2022-08-22T12:04:13.753Z,18.90
2022-08-22T12:05:26.394Z,18.91
2022-08-22T12:06:47.496Z,18.92
2022-08-22T12:08:26.428Z,18.93
2022-08-22T12:09:53.887Z,18.95
2022-08-22T12:11:08.367Z,18.96
2022-08-22T12:12:23.377Z,18.98
2022-08-22T12:14:04.033Z,18.99
2022-08-22T12:15:20.141Z,19.00
2022-08-22T12:17:07.130Z,19.00
2022-08-22T12:18:53.494Z,19.00
2022-08-22T12:20:35.476Z,18.99
2022-08-22T12:22:19.667Z,18.99
2022-08-22T12:23:49.773Z,18.98
2022-08-22T12:25:22.533Z,18.97
2022-08-22T12:27:08.050Z,18.96
2022-08-22T12:28:57.404Z,18.94
2022-08-22T12:30:32.279Z,18.94
2022-08-22T12:32:02.970Z,18.92
2022-08-22T12:33:24.673Z,18.91
2022-08-22T12:34:53.021Z,18.89
2022-08-22T12:36:18.719Z,18.88
2022-08-22T12:37:53.153Z,18.86
2022-08-22T12:39:54.242Z,18.83
2022-08-22T12:41:28.181Z,18.81
2022-08-22T12:43:04.065Z,18.79
2022-08-22T12:44:45.535Z,18.77
2022-08-22T12:46:30.711Z,18.75
2022-08-22T12:48:02.538Z,18.72
2022-08-22T12:49:38.530Z,18.70
2022-08-22T12:50:50.259Z,18.68
2022-08-22T12:52:26.625Z,18.65
2022-08-22T12:53:57.655Z,18.62
2022-08-22T12:55:25.281Z,18.60
2022-08-22T12:56:47.391Z,18.58
2022-08-22T12:58:42.856Z,18.55
2022-08-22T12:59:54.498Z,18.52
2022-08-22T13:01:08.290Z,18.51
2022-08-22T13:02:19.836Z,18.50
2022-08-22T13:03:38.376Z,18.49
2022-08-22T13:04:58.893Z,18.50
2022-08-22T13:06:13.755Z,18.50
2022-08-22T13:07:29.109Z,18.51
2022-08-22T13:08:40.195Z,18.51
2022-08-22T13:10:03.728Z,18.52
2022-08-22T13:11:23.116Z,18.52
2022-08-22T13:12:47.150Z,18.54
2022-08-22T13:13:59.329Z,18.55
2022-08-22T13:15:36.054Z,18.56
2022-08-22T13:16:49.018Z,18.56
2022-08-22T13:18:18.841Z,18.57
2022-08-22T13:19:33.566Z,18.57
2022-08-22T13:20:43.759Z,18.59
2022-08-22T13:22:04.950Z,18.61
2022-08-22T13:23:20.657Z,18.61
2022-08-22T13:24:51.833Z,18.62
2022-08-22T13:26:33.060Z,18.63
2022-08-22T13:28:02.184Z,18.64
2022-08-22T13:29:26.895Z,18.67
2022-08-22T13:30:40.604Z,18.70
2022-08-22T13:31:48.758Z,18.72
2022-08-22T13:33:40.856Z,18.74
2022-08-22T13:34:53.864Z,18.76
2022-08-22T13:36:10.834Z,18.78
2022-08-22T13:37:24.523Z,18.81
2022-08-22T13:38:53.548Z,18.85
2022-08-22T13:40:05.965Z,18.93
2022-08-22T13:41:15.501Z,19.01
2022-08-22T13:42:30.105Z,19.10
2022-08-22T13:43:58.274Z,19.17
2022-08-22T13:45:14.714Z,19.25
2022-08-22T13:46:31.368Z,19.33
2022-08-22T13:47:54.301Z,19.40
2022-08-22T13:49:04.954Z,19.45
2022-08-22T13:50:21.004Z,19.49
2022-08-22T13:51:31.493Z,19.53
2022-08-22T13:52:45.830Z,19.56
2022-08-22T13:54:51.107Z,19.62
2022-08-22T13:56:06.578Z,19.77
2022-08-22T13:57:51.956Z,19.90
2022-08-22T13:59:01.868Z,20.06
2022-08-22T14:00:36.577Z,20.18
2022-08-22T14:02:01.828Z,20.37
2022-08-22T14:03:23.308Z,20.54
2022-08-22T14:04:37.684Z,20.72
2022-08-22T14:05:53.302Z,20.91
2022-08-22T14:07:06.624Z,21.08
2022-08-22T14:08:36.708Z,21.23
2022-08-22T14:10:02.931Z,21.40
2022-08-22T14:11:33.836Z,21.53
2022-08-22T14:12:51.285Z,21.70
2022-08-22T14:14:01.777Z,21.88
2022-08-22T14:15:10.364Z,22.03
2022-08-22T14:16:36.777Z,22.15
2022-08-22T14:17:48.380Z,22.24
2022-08-22T14:19:08.294Z,22.30
2022-08-22T14:20:32.003Z,22.38
2022-08-22T14:22:07.320Z,22.47
2022-08-22T14:23:31.175Z,22.65
2022-08-22T14:24:57.471Z,22.83
2022-08-22T14:26:07.706Z,22.98
2022-08-22T14:27:54.562Z,23.02
2022-08-22T14:29:05.800Z,23.00
2022-08-22T14:30:24.423Z,22.97
2022-08-22T14:31:33.580Z,22.96
2022-08-22T14:32:50.027Z,23.04
2022-08-22T14:34:01.452Z,23.14
2022-08-22T14:35:35.276Z,23.25
2022-08-22T14:37:17.022Z,23.37
2022-08-22T14:38:46.310Z,23.52
2022-08-22T14:40:03.842Z,23.65
2022-08-22T14:41:24.795Z,23.68
2022-08-22T14:42:51.230Z,23.72
2022-08-22T14:44:11.610Z,23.82
2022-08-22T14:45:48.034Z,24.01
2022-08-22T14:47:03.712Z,24.14
2022-08-22T14:48:32.600Z,24.27
2022-08-22T14:49:57.349Z,24.37
2022-08-22T14:51:11.542Z,24.49
2022-08-22T14:52:45.902Z,24.56
2022-08-22T14:53:54.338Z,24.53
2022-08-22T14:55:31.867Z,24.49
2022-08-22T14:56:41.128Z,24.40
2022-08-22T14:57:54.615Z,24.37
2022-08-22T14:59:06.878Z,24.33
2022-08-22T15:00:16.087Z,24.24
2022-08-22T15:01:29.801Z,24.20
2022-08-22T15:02:41.438Z,24.19
2022-08-22T15:04:21.870Z,24.26
2022-08-22T15:05:31.571Z,24.28
2022-08-22T15:06:58.269Z,24.19
2022-08-22T15:08:07.534Z,24.19
2022-08-22T15:09:40.565Z,24.25
2022-08-22T15:11:07.327Z,24.22
2022-08-22T15:12:36.298Z,24.15
2022-08-22T15:14:14.578Z,24.16
2022-08-22T15:15:54.303Z,24.37
2022-08-22T15:17:07.909Z,24.46
2022-08-22T15:18:35.316Z,24.49
2022-08-22T15:19:52.177Z,24.62
2022-08-22T15:21:14.236Z,24.68
2022-08-22T15:22:29.425Z,24.86
2022-08-22T15:23:45.446Z,25.09
2022-08-22T15:25:03.241Z,25.36
2022-08-22T15:26:13.208Z,25.65
2022-08-22T15:27:22.877Z,25.91
2022-08-22T15:28:49.719Z,25.98
2022-08-22T15:30:18.764Z,26.11
2022-08-22T15:31:31.719Z,26.27
2022-08-22T15:32:41.750Z,26.40
2022-08-22T15:33:49.832Z,26.53
2022-08-22T15:35:41.709Z,26.78
2022-08-22T15:37:32.633Z,26.99
2022-08-22T15:38:47.953Z,27.19
2022-08-22T15:40:14.730Z,27.31
2022-08-22T15:41:36.061Z,27.40
2022-08-22T15:42:52.300Z,27.38
2022-08-22T15:44:32.371Z,27.33
2022-08-22T15:45:41.777Z,27.29
2022-08-22T15:47:02.672Z,27.35
2022-08-22T15:48:14.875Z,27.44
2022-08-22T15:49:22.893Z,27.56
2022-08-22T15:51:09.426Z,27.58
2022-08-22T15:52:34.014Z,27.64
2022-08-22T15:53:49.543Z,27.82
2022-08-22T15:55:20.180Z,28.04
2022-08-22T15:56:29.752Z,27.97
2022-08-22T15:57:40.896Z,27.85
2022-08-22T15:58:52.096Z,27.79
2022-08-22T16:00:13.644Z,27.81
2022-08-22T16:01:26.602Z,27.94
2022-08-22T16:02:39.898Z,28.06
2022-08-22T16:04:07.967Z,28.14
2022-08-22T16:05:25.706Z,28.26
2022-08-22T16:06:50.500Z,28.33
2022-08-22T16:08:07.599Z,28.50
2022-08-22T16:09:39.502Z,28.70
2022-08-22T16:10:56.287Z,28.91
2022-08-22T16:12:08.396Z,29.06
2022-08-22T16:13:39.398Z,29.15
2022-08-22T16:14:51.995Z,29.10
2022-08-22T16:16:11.064Z,29.09
2022-08-22T16:17:34.641Z,29.10
2022-08-22T16:18:45.684Z,29.02
2022-08-22T16:20:19.429Z,29.04
2022-08-22T16:21:29.620Z,28.99
2022-08-22T16:23:02.294Z,29.07
2022-08-22T16:24:15.996Z,29.21
2022-08-22T16:25:50.798Z,29.32
2022-08-22T16:26:58.147Z,29.41
2022-08-22T16:28:08.147Z,29.54
2022-08-22T16:29:30.299Z,29.64
2022-08-22T16:30:45.460Z,29.62
2022-08-22T16:31:55.641Z,29.73
2022-08-22T16:33:03.923Z,29.92
2022-08-22T16:34:40.169Z,30.00
2022-08-22T16:36:19.895Z,30.06
2022-08-22T16:37:27.761Z,29.97
2022-08-22T16:38:42.846Z,29.95
2022-08-22T16:39:54.566Z,30.08
2022-08-22T16:41:06.176Z,30.20
2022-08-22T16:42:25.537Z,30.16
2022-08-22T16:43:33.674Z,30.07
2022-08-22T16:45:06.708Z,30.18
2022-08-22T16:46:36.446Z,30.09
2022-08-22T16:48:02.457Z,30.01
2022-08-22T16:49:12.478Z,30.04
2022-08-22T16:50:25.488Z,30.04
2022-08-22T16:51:35.073Z,30.00
2022-08-22T16:52:54.693Z,29.92
2022-08-22T16:54:45.356Z,30.07
2022-08-22T16:56:23.407Z,30.12
2022-08-22T16:58:04.932Z,30.22
2022-08-22T16:59:59.869Z,30.29
2022-08-22T17:01:23.744Z,30.30
2022-08-22T17:03:09.961Z,30.35
2022-08-22T17:04:24.408Z,30.21
2022-08-22T17:05:53.407Z,30.30
2022-08-22T17:07:38.334Z,30.40
2022-08-22T17:09:07.328Z,30.23
2022-08-22T17:11:00.002Z,30.29
2022-08-22T17:12:22.748Z,30.44
2022-08-22T17:13:54.895Z,30.65
2022-08-22T17:15:22.210Z,30.50
2022-08-22T17:16:54.096Z,30.51
2022-08-22T17:18:27.148Z,30.74
2022-08-22T17:20:02.868Z,30.86
2022-08-22T17:21:13.355Z,30.99
2022-08-22T17:22:45.884Z,31.07
2022-08-22T17:24:31.595Z,31.13
2022-08-22T17:26:18.892Z,30.91
2022-08-22T17:27:40.415Z,31.00
2022-08-22T17:29:05.991Z,30.95
2022-08-22T17:30:37.984Z,31.01
2022-08-22T17:32:04.156Z,31.09
2022-08-22T17:33:51.891Z,31.22
2022-08-22T17:35:41.509Z,31.41
2022-08-22T17:37:04.043Z,31.58
2022-08-22T17:38:54.226Z,31.70
2022-08-22T17:40:40.719Z,31.85
2022-08-22T17:42:00.551Z,31.84
2022-08-22T17:43:51.185Z,31.76
2022-08-22T17:45:43.583Z,31.75
2022-08-22T17:46:55.870Z,31.72
2022-08-22T17:48:15.050Z,31.90
2022-08-22T17:49:45.061Z,32.07
2022-08-22T17:51:26.536Z,32.11
2022-08-22T17:52:42.858Z,31.95
2022-08-22T17:53:52.676Z,31.91
2022-08-22T17:55:08.464Z,31.89
2022-08-22T17:56:21.644Z,32.00
2022-08-22T17:58:37.609Z,32.18
2022-08-22T17:59:57.951Z,32.33
2022-08-22T18:01:17.994Z,32.28
2022-08-22T18:03:07.070Z,32.36
2022-08-22T18:04:34.909Z,32.28
2022-08-22T18:06:21.579Z,32.07
2022-08-22T18:08:00.031Z,32.09
2022-08-22T18:09:18.629Z,32.25
2022-08-22T18:11:01.787Z,32.22
2022-08-22T18:12:19.614Z,32.26
2022-08-22T18:14:27.352Z,32.36
2022-08-22T18:16:06.400Z,32.49
2022-08-22T18:17:35.102Z,32.62
2022-08-22T18:19:10.100Z,32.55